Time;durP1;ratioP1;P1;durP2;ratioP2;P2;SDS_P1;SDS_P2;PMS_P1;PMS_P2;Temp;Humidity;BMP_temperature;BMP_pressure;BME280_temperature;BME280_humidity;BME280_pressure;Samples;Min_cycle;Max_cycle;Signal;HPM_P1;HPM_P2
2023/07/06 00:00:55;;;;;;;7.85;4.15;;;14.20;99.90;;;;;;5006235;28;20081;-84
2023/07/06 00:03:24;;;;;;;5.15;3.92;;;14.10;99.90;;;;;;5002232;28;20089;-83
2023/07/06 00:05:50;;;;;;;6.55;3.83;;;14.10;99.90;;;;;;5004679;28;20030;-84
2023/07/06 00:08:16;;;;;;;10.75;4.50;;;14.10;99.90;;;;;;5003939;28;20034;-84
2023/07/06 00:10:46;;;;;;;6.63;4.35;;;14.10;99.90;;;;;;5006323;28;20627;-85
2023/07/06 00:13:12;;;;;;;6.30;4.13;;;14.10;99.90;;;;;;5006159;28;20034;-86
2023/07/06 00:15:42;;;;;;;6.53;4.03;;;14.10;99.90;;;;;;5005972;28;20034;-84
2023/07/06 00:18:09;;;;;;;5.15;4.25;;;14.00;99.90;;;;;;5004816;28;20055;-85
2023/07/06 00:20:38;;;;;;;5.28;3.83;;;14.10;99.90;;;;;;5004546;28;20034;-84
2023/07/06 00:23:04;;;;;;;7.50;4.03;;;14.10;99.90;;;;;;5005716;28;20856;-84
2023/07/06 00:25:30;;;;;;;7.53;4.05;;;14.10;99.90;;;;;;5004188;28;20654;-84
2023/07/06 00:27:58;;;;;;;7.53;4.15;;;14.10;99.90;;;;;;5004448;28;20034;-83
2023/07/06 00:30:40;;;;;;;6.22;4.07;;;14.10;99.90;;;;;;5004267;28;20781;-84
2023/07/06 00:33:07;;;;;;;6.10;3.90;;;14.20;99.90;;;;;;5004970;28;20740;-85
2023/07/06 00:35:34;;;;;;;5.97;4.07;;;14.10;99.90;;;;;;5003197;28;20037;-85
2023/07/06 00:37:59;;;;;;;6.18;3.55;;;14.20;99.90;;;;;;5003096;28;20041;-85
2023/07/06 00:40:32;;;;;;;4.63;3.67;;;14.20;99.90;;;;;;5003289;28;20049;-85
2023/07/06 00:42:59;;;;;;;5.57;3.97;;;14.20;99.90;;;;;;5003910;28;20034;-84
2023/07/06 00:45:25;;;;;;;4.78;3.58;;;14.20;99.90;;;;;;5004086;28;20101;-84
2023/07/06 00:47:56;;;;;;;6.50;3.92;;;14.20;99.90;;;;;;5002492;28;20107;-86
2023/07/06 00:50:24;;;;;;;4.95;3.83;;;14.20;99.90;;;;;;5003301;28;20022;-84
2023/07/06 00:53:11;;;;;;;6.80;3.95;;;14.20;99.90;;;;;;5002007;28;21030;-84
2023/07/06 00:55:41;;;;;;;4.53;3.78;;;14.20;99.90;;;;;;5001994;28;20038;-84
2023/07/06 00:58:31;;;;;;;7.95;3.95;;;14.20;99.90;;;;;;5002861;28;21515;-84
2023/07/06 01:01:02;;;;;;;5.35;3.80;;;14.20;99.90;;;;;;5002316;28;20041;-84
2023/07/06 01:03:28;;;;;;;5.45;4.07;;;14.20;99.90;;;;;;5002716;28;20030;-84
2023/07/06 01:06:00;;;;;;;6.75;3.78;;;14.20;99.90;;;;;;5002747;28;20038;-84
2023/07/06 01:08:26;;;;;;;4.85;3.83;;;14.20;99.90;;;;;;5003795;28;20030;-85
2023/07/06 01:10:53;;;;;;;5.78;4.20;;;14.20;99.90;;;;;;5004034;28;20031;-84
2023/07/06 01:13:21;;;;;;;6.68;3.83;;;14.20;99.90;;;;;;5003612;28;20425;-85
2023/07/06 01:16:18;;;;;;;6.65;3.70;;;14.20;99.90;;;;;;5006692;28;20478;-83
2023/07/06 01:18:58;;;;;;;7.72;4.25;;;14.20;99.90;;;;;;5008274;28;20030;-84
2023/07/06 01:21:44;;;;;;;4.95;3.70;;;14.10;99.90;;;;;;5006772;28;20109;-84
2023/07/06 01:24:43;;;;;;;5.80;3.80;;;14.10;99.90;;;;;;5006649;28;20033;-83
2023/07/06 01:27:36;;;;;;;6.57;3.55;;;14.10;99.90;;;;;;5006402;28;20046;-84
2023/07/06 01:30:38;;;;;;;8.02;4.43;;;14.10;99.90;;;;;;5005508;28;20045;-84
2023/07/06 01:33:11;;;;;;;7.10;3.80;;;14.00;99.90;;;;;;4987322;28;20073;-85
2023/07/06 01:35:53;;;;;;;7.25;4.10;;;14.00;99.90;;;;;;5005684;28;20030;-84
2023/07/06 01:38:21;;;;;;;5.93;3.85;;;14.00;99.90;;;;;;5005191;28;20029;-84
2023/07/06 01:40:47;;;;;;;6.82;4.43;;;14.00;99.90;;;;;;5006770;28;20068;-84
2023/07/06 01:43:13;;;;;;;8.18;3.58;;;13.90;99.90;;;;;;5004352;28;20034;-84
2023/07/06 01:45:38;;;;;;;5.05;3.63;;;13.90;99.90;;;;;;5004944;28;20509;-84
2023/07/06 01:48:07;;;;;;;8.98;4.10;;;13.90;99.90;;;;;;5005721;28;21437;-84
2023/07/06 01:50:57;;;;;;;6.28;3.60;;;13.90;99.90;;;;;;5004881;28;20044;-83
2023/07/06 01:53:43;;;;;;;6.63;3.50;;;13.80;99.90;;;;;;5003545;28;20646;-85
2023/07/06 01:56:21;;;;;;;5.63;3.53;;;13.80;99.90;;;;;;5002802;28;20406;-84
2023/07/06 01:59:07;;;;;;;8.10;4.70;;;13.70;99.90;;;;;;5004320;28;20045;-84
2023/07/06 02:01:45;;;;;;;6.72;4.63;;;13.70;99.90;;;;;;5003390;28;20076;-85
2023/07/06 02:04:12;;;;;;;7.55;3.83;;;13.60;99.90;;;;;;5003188;28;20053;-86
2023/07/06 02:06:38;;;;;;;6.20;3.97;;;13.60;99.90;;;;;;5002261;28;20037;-85
2023/07/06 02:09:04;;;;;;;5.13;3.88;;;13.50;99.90;;;;;;5001507;28;20034;-84
2023/07/06 02:11:32;;;;;;;5.93;4.03;;;13.50;99.90;;;;;;5000479;28;20120;-85
2023/07/06 02:13:57;;;;;;;5.88;4.30;;;13.50;99.90;;;;;;5002445;28;20038;-84
2023/07/06 02:16:23;;;;;;;5.68;3.97;;;13.40;99.90;;;;;;4999133;28;20041;-84
2023/07/06 02:18:49;;;;;;;10.30;4.50;;;13.40;99.90;;;;;;5006238;28;20030;-85
2023/07/06 02:21:15;;;;;;;5.82;4.10;;;13.30;99.90;;;;;;5006278;28;20041;-85
2023/07/06 02:23:40;;;;;;;8.30;4.18;;;13.20;99.90;;;;;;5004985;28;20049;-85
2023/07/06 02:26:06;;;;;;;6.50;3.88;;;13.20;99.90;;;;;;5004387;28;20037;-85
2023/07/06 02:28:31;;;;;;;6.80;4.03;;;13.20;99.90;;;;;;5005069;28;20104;-85
2023/07/06 02:30:58;;;;;;;6.20;4.00;;;13.10;99.90;;;;;;5005920;28;20026;-84
2023/07/06 02:33:25;;;;;;;5.82;3.65;;;13.10;99.90;;;;;;5005507;28;20030;-84
2023/07/06 02:35:51;;;;;;;5.60;4.05;;;13.10;99.90;;;;;;5004831;28;20026;-86
2023/07/06 02:38:19;;;;;;;7.32;4.20;;;13.00;99.90;;;;;;5005243;28;20133;-85
2023/07/06 02:40:46;;;;;;;6.13;3.50;;;13.00;99.90;;;;;;5004732;28;20414;-84
2023/07/06 02:43:12;;;;;;;4.57;3.75;;;13.00;99.90;;;;;;5003375;28;20065;-86
2023/07/06 02:45:37;;;;;;;5.95;4.03;;;13.00;99.90;;;;;;5003479;28;20026;-84
2023/07/06 02:48:04;;;;;;;6.25;4.03;;;12.90;99.90;;;;;;5005256;28;20405;-85
2023/07/06 02:50:30;;;;;;;6.15;4.10;;;12.90;99.90;;;;;;5005864;28;20255;-84
2023/07/06 02:52:56;;;;;;;7.57;4.28;;;12.90;99.90;;;;;;5004926;28;20518;-84
2023/07/06 02:55:26;;;;;;;8.88;4.15;;;12.90;99.90;;;;;;5004424;28;20031;-84
2023/07/06 02:57:52;;;;;;;6.90;4.25;;;12.80;99.90;;;;;;5004454;28;20046;-84
2023/07/06 03:00:18;;;;;;;5.68;3.63;;;12.80;99.90;;;;;;5006268;28;20685;-85
2023/07/06 03:02:45;;;;;;;6.57;3.75;;;12.80;99.90;;;;;;5004976;28;20100;-86
2023/07/06 03:05:11;;;;;;;6.53;3.47;;;12.70;99.90;;;;;;5003770;28;20037;-85
2023/07/06 03:07:37;;;;;;;6.82;3.90;;;12.70;99.90;;;;;;5005238;28;20066;-84
2023/07/06 03:10:05;;;;;;;6.95;3.45;;;12.70;99.90;;;;;;5004700;28;20038;-85
2023/07/06 03:12:33;;;;;;;6.60;3.95;;;12.60;99.90;;;;;;5004097;28;20036;-84
2023/07/06 03:15:00;;;;;;;6.28;3.70;;;12.60;99.90;;;;;;5001923;28;20038;-84
2023/07/06 03:17:25;;;;;;;6.05;3.63;;;12.60;99.90;;;;;;5004294;28;20390;-85
2023/07/06 03:19:52;;;;;;;5.30;3.53;;;12.50;99.90;;;;;;5004811;28;20038;-86
2023/07/06 03:22:18;;;;;;;6.90;3.75;;;12.50;99.90;;;;;;5004482;28;20049;-85
2023/07/06 03:24:45;;;;;;;5.50;4.03;;;12.50;99.90;;;;;;5004653;28;20025;-85
2023/07/06 03:27:10;;;;;;;6.68;3.75;;;12.50;99.90;;;;;;5004406;28;20030;-84
2023/07/06 03:29:36;;;;;;;5.93;3.97;;;12.50;99.90;;;;;;5003907;28;20048;-85
2023/07/06 03:32:03;;;;;;;10.65;4.78;;;12.40;99.90;;;;;;5005127;28;20029;-86
2023/07/06 03:34:29;;;;;;;5.78;4.15;;;12.40;99.90;;;;;;5003954;28;20030;-84
2023/07/06 03:36:54;;;;;;;7.43;4.47;;;12.30;99.90;;;;;;5002483;28;20453;-85
2023/07/06 03:39:20;;;;;;;6.82;4.20;;;12.30;99.90;;;;;;5002941;28;20084;-86
2023/07/06 03:41:45;;;;;;;7.75;3.95;;;12.30;99.90;;;;;;5002239;28;20053;-85
2023/07/06 03:44:11;;;;;;;6.97;4.10;;;12.20;99.90;;;;;;5004068;28;20473;-85
2023/07/06 03:46:37;;;;;;;6.97;3.90;;;12.20;99.90;;;;;;5002707;28;20463;-87
2023/07/06 03:49:08;;;;;;;7.40;4.38;;;12.20;99.90;;;;;;5002781;28;20030;-85
2023/07/06 03:51:33;;;;;;;6.07;4.10;;;12.20;99.90;;;;;;5003067;28;20058;-84
2023/07/06 03:54:00;;;;;;;6.07;4.20;;;12.20;99.90;;;;;;5003133;28;20065;-85
2023/07/06 03:56:28;;;;;;;6.60;4.05;;;12.20;99.90;;;;;;5005095;28;20482;-86
2023/07/06 03:58:56;;;;;;;6.70;4.32;;;12.20;99.90;;;;;;5004021;28;20478;-84
2023/07/06 04:01:23;;;;;;;6.18;4.47;;;12.20;99.90;;;;;;5003679;28;20052;-85
2023/07/06 04:03:49;;;;;;;7.20;4.10;;;12.20;99.90;;;;;;5002769;28;20137;-85
2023/07/06 04:06:15;;;;;;;10.82;4.75;;;12.20;99.90;;;;;;5001081;28;20063;-85
2023/07/06 04:08:40;;;;;;;7.10;4.47;;;12.30;99.90;;;;;;5003580;28;20030;-86
2023/07/06 04:11:07;;;;;;;9.20;4.43;;;12.30;99.90;;;;;;5005003;28;20030;-84
2023/07/06 04:13:32;;;;;;;8.38;4.68;;;12.30;99.90;;;;;;5004623;28;20616;-83
2023/07/06 04:15:58;;;;;;;8.30;4.55;;;12.40;99.90;;;;;;5005650;28;20026;-84
2023/07/06 04:18:24;;;;;;;6.38;4.45;;;12.40;99.90;;;;;;5005553;28;20814;-85
2023/07/06 04:20:49;;;;;;;6.70;4.20;;;12.50;99.90;;;;;;5005461;28;20069;-85
2023/07/06 04:23:15;;;;;;;6.20;4.63;;;12.50;99.90;;;;;;5005101;28;20034;-84
2023/07/06 04:25:40;;;;;;;9.63;4.43;;;12.60;99.90;;;;;;5002911;28;20116;-84
2023/07/06 04:28:10;;;;;;;8.18;4.90;;;12.60;99.90;;;;;;5057339;22;20049;-82
2023/07/06 04:30:38;;;;;;;7.32;4.50;;;12.70;99.90;;;;;;5018572;28;20037;-80
2023/07/06 04:33:04;;;;;;;7.10;4.45;;;12.70;99.90;;;;;;5019032;28;20033;-80
2023/07/06 04:35:31;;;;;;;8.40;4.40;;;12.80;99.90;;;;;;5013650;28;20058;-81
2023/07/06 04:37:59;;;;;;;8.45;4.07;;;12.80;99.90;;;;;;5014266;28;20090;-81
2023/07/06 04:40:26;;;;;;;12.27;5.18;;;12.90;99.90;;;;;;5013348;28;21322;-81
2023/07/06 04:42:52;;;;;;;8.07;5.50;;;13.00;99.90;;;;;;5011151;28;20029;-80
2023/07/06 04:45:19;;;;;;;10.07;5.78;;;13.00;99.90;;;;;;5006553;28;20050;-80
2023/07/06 04:47:45;;;;;;;10.00;5.20;;;13.10;99.90;;;;;;5008012;28;20498;-79
2023/07/06 04:50:17;;;;;;;7.82;4.55;;;13.10;99.90;;;;;;5008216;28;20072;-80
2023/07/06 04:52:44;;;;;;;8.05;4.68;;;13.20;99.90;;;;;;5006907;28;20030;-80
2023/07/06 04:55:10;;;;;;;12.88;5.03;;;13.20;99.90;;;;;;4998256;28;20168;-81
2023/07/06 04:57:36;;;;;;;5.10;3.95;;;13.30;99.90;;;;;;4997206;28;20062;-79
2023/07/06 05:00:18;;;;;;;5.65;4.13;;;13.40;99.90;;;;;;4996818;28;20112;-80
2023/07/06 05:02:46;;;;;;;8.68;3.85;;;13.40;99.90;;;;;;4998324;28;20077;-80
2023/07/06 05:05:12;;;;;;;6.78;4.35;;;13.50;99.90;;;;;;4995849;28;20033;-80
2023/07/06 05:07:45;;;;;;;6.95;4.10;;;13.60;99.90;;;;;;4998837;28;20034;-80
2023/07/06 05:10:12;;;;;;;7.57;4.25;;;13.60;99.90;;;;;;5000577;28;20038;-80
2023/07/06 05:12:38;;;;;;;5.63;4.18;;;13.70;99.90;;;;;;5005021;28;20626;-74
2023/07/06 05:15:06;;;;;;;7.85;4.93;;;13.80;99.90;;;;;;5001255;28;20707;-74
2023/07/06 05:17:31;;;;;;;5.05;3.65;;;13.90;99.90;;;;;;5001908;28;20109;-74
2023/07/06 05:19:58;;;;;;;8.85;4.85;;;14.00;99.90;;;;;;5002516;28;20547;-75
2023/07/06 05:22:24;;;;;;;7.50;4.32;;;14.00;99.90;;;;;;5003013;28;20723;-75
2023/07/06 05:24:49;;;;;;;8.70;4.43;;;14.20;99.90;;;;;;5005041;28;20037;-79
2023/07/06 05:27:15;;;;;;;10.45;4.43;;;14.30;99.90;;;;;;5004426;28;20045;-78
2023/07/06 05:29:40;;;;;;;5.43;3.65;;;14.40;99.90;;;;;;5003625;28;20033;-78
2023/07/06 05:32:08;;;;;;;7.78;4.63;;;14.50;99.90;;;;;;5005328;28;20036;-78
2023/07/06 05:34:33;;;;;;;6.43;4.05;;;14.70;99.90;;;;;;5002523;28;20049;-78
2023/07/06 05:37:00;;;;;;;7.78;4.45;;;14.80;99.90;;;;;;5003197;28;20030;-78
2023/07/06 05:39:25;;;;;;;5.88;4.28;;;14.90;99.90;;;;;;5002642;28;20429;-78
2023/07/06 05:41:51;;;;;;;6.40;4.25;;;15.00;99.90;;;;;;5004412;28;20046;-79
2023/07/06 05:44:17;;;;;;;8.68;4.47;;;15.10;99.90;;;;;;5001986;28;20053;-78
2023/07/06 05:46:42;;;;;;;10.05;4.90;;;15.30;99.90;;;;;;5001861;28;20120;-78
2023/07/06 05:49:08;;;;;;;5.93;3.95;;;15.40;99.90;;;;;;5003420;28;20149;-78
2023/07/06 05:51:33;;;;;;;6.90;4.20;;;15.50;99.90;;;;;;5002532;28;20058;-78
2023/07/06 05:53:59;;;;;;;7.20;4.13;;;15.60;99.90;;;;;;5001099;28;20137;-77
2023/07/06 05:56:25;;;;;;;17.05;4.70;;;15.70;99.90;;;;;;5002310;28;20088;-77
2023/07/06 05:58:51;;;;;;;8.15;4.35;;;15.80;99.90;;;;;;5002449;28;20041;-78
2023/07/06 06:01:19;;;;;;;7.82;3.92;;;16.00;99.90;;;;;;5004052;28;20422;-78
2023/07/06 06:03:45;;;;;;;6.40;4.00;;;16.10;99.90;;;;;;5005744;28;20026;-78
2023/07/06 06:06:11;;;;;;;7.65;4.05;;;16.20;99.90;;;;;;5006403;28;21489;-78
2023/07/06 06:08:38;;;;;;;5.50;3.88;;;16.20;99.90;;;;;;5006683;28;20367;-78
2023/07/06 06:11:03;;;;;;;8.98;3.65;;;16.40;99.90;;;;;;5004361;28;20033;-78
2023/07/06 06:13:30;;;;;;;7.90;3.97;;;16.50;99.90;;;;;;5004870;28;20041;-78
2023/07/06 06:15:57;;;;;;;6.15;4.20;;;16.70;99.90;;;;;;5007281;28;20087;-78
2023/07/06 06:18:25;;;;;;;5.22;3.67;;;16.80;99.90;;;;;;5005696;28;20525;-78
2023/07/06 06:20:51;;;;;;;8.10;4.43;;;17.00;99.90;;;;;;5004676;28;20040;-77
2023/07/06 06:23:20;;;;;;;8.10;4.05;;;17.30;99.90;;;;;;5005861;28;20119;-78
2023/07/06 06:25:48;;;;;;;7.25;3.63;;;17.50;99.90;;;;;;5008055;28;20075;-76
2023/07/06 06:28:16;;;;;;;5.65;3.47;;;17.60;99.90;;;;;;5003055;28;20049;-77
2023/07/06 06:30:42;;;;;;;4.55;3.15;;;17.80;99.90;;;;;;5006412;28;20437;-78
2023/07/06 06:33:08;;;;;;;5.32;2.92;;;18.00;99.90;;;;;;5005631;28;20034;-77
2023/07/06 06:35:34;;;;;;;5.53;3.28;;;18.10;99.90;;;;;;5007789;28;20039;-77
2023/07/06 06:38:03;;;;;;;8.02;3.53;;;18.30;99.90;;;;;;5006417;28;20486;-77
2023/07/06 06:40:31;;;;;;;6.25;3.63;;;18.40;99.90;;;;;;5005135;28;20105;-77
2023/07/06 06:42:57;;;;;;;5.18;3.47;;;18.60;99.90;;;;;;5006094;28;20029;-77
2023/07/06 06:45:23;;;;;;;4.80;3.33;;;18.70;99.90;;;;;;5004292;28;20377;-77
2023/07/06 06:47:50;;;;;;;6.90;3.38;;;18.80;99.90;;;;;;5006876;28;20037;-77
2023/07/06 06:50:16;;;;;;;7.53;3.72;;;18.90;99.90;;;;;;5006458;28;21372;-78
2023/07/06 06:52:43;;;;;;;8.57;3.70;;;19.10;99.90;;;;;;5005577;28;20462;-77
2023/07/06 06:55:10;;;;;;;5.25;3.40;;;19.30;99.90;;;;;;5004837;28;20168;-77
2023/07/06 06:57:36;;;;;;;6.05;3.50;;;19.30;99.90;;;;;;5006138;28;20729;-77
2023/07/06 07:00:06;;;;;;;6.35;3.65;;;19.40;99.90;;;;;;5007290;28;20099;-77
2023/07/06 07:02:33;;;;;;;4.95;2.90;;;19.60;99.90;;;;;;5005984;28;20046;-77
2023/07/06 07:05:00;;;;;;;7.43;3.70;;;19.60;99.90;;;;;;5001687;28;20076;-76
2023/07/06 07:07:27;;;;;;;6.82;3.67;;;19.60;99.90;;;;;;5004629;28;20406;-76
2023/07/06 07:09:53;;;;;;;8.82;3.78;;;19.50;99.90;;;;;;5002853;28;20025;-76
2023/07/06 07:12:19;;;;;;;6.75;3.30;;;19.60;99.90;;;;;;5006436;28;21362;-76
2023/07/06 07:14:45;;;;;;;5.38;3.10;;;19.60;99.90;;;;;;5005711;28;20038;-76
2023/07/06 07:17:12;;;;;;;7.65;3.38;;;19.70;99.90;;;;;;5004804;28;20054;-76
2023/07/06 07:19:39;;;;;;;5.60;2.85;;;19.70;99.90;;;;;;5003144;28;20080;-76
2023/07/06 07:22:05;;;;;;;4.80;3.10;;;19.70;99.90;;;;;;5006417;28;20042;-75
2023/07/06 07:24:32;;;;;;;6.97;3.00;;;19.70;99.90;;;;;;5004854;28;20163;-76
2023/07/06 07:27:01;;;;;;;7.40;3.20;;;19.80;99.90;;;;;;5005355;28;20511;-76
2023/07/06 07:29:26;;;;;;;5.18;2.95;;;19.80;99.90;;;;;;5005396;28;20065;-76
2023/07/06 07:31:52;;;;;;;5.93;3.28;;;19.80;99.90;;;;;;5005182;28;20137;-76
2023/07/06 07:34:19;;;;;;;6.80;3.50;;;19.90;99.90;;;;;;5005515;28;20033;-76
2023/07/06 07:36:45;;;;;;;5.35;3.20;;;20.00;99.90;;;;;;5005940;28;20037;-76
2023/07/06 07:39:11;;;;;;;7.55;3.55;;;20.00;99.90;;;;;;5004922;28;20048;-76
2023/07/06 07:41:37;;;;;;;7.55;3.55;;;20.20;99.90;;;;;;5002107;28;20040;-76
2023/07/06 07:44:03;;;;;;;7.28;3.40;;;20.20;99.90;;;;;;5003738;28;20057;-80
2023/07/06 07:46:29;;;;;;;6.13;3.47;;;20.20;99.90;;;;;;5006218;28;20045;-80
2023/07/06 07:48:56;;;;;;;8.18;3.38;;;20.30;99.90;;;;;;5006627;28;20041;-79
2023/07/06 07:51:31;;;;;;;4.93;2.92;;;20.30;99.90;;;;;;5005414;28;20580;-80
2023/07/06 07:53:57;;;;;;;7.07;3.17;;;20.30;99.90;;;;;;5005907;28;20295;-80
2023/07/06 07:56:24;;;;;;;4.53;3.20;;;20.40;99.90;;;;;;5007449;28;20021;-80
2023/07/06 07:58:50;;;;;;;6.88;3.17;;;20.40;99.90;;;;;;5003889;28;20032;-80
2023/07/06 08:01:25;;;;;;;5.65;3.92;;;20.50;99.90;;;;;;5007356;28;20049;-80
2023/07/06 08:03:55;;;;;;;5.88;3.60;;;20.60;99.90;;;;;;5005610;28;20794;-80
2023/07/06 08:06:22;;;;;;;5.18;3.28;;;20.70;99.90;;;;;;5007209;28;20064;-80
2023/07/06 08:08:47;;;;;;;4.55;3.15;;;20.70;99.90;;;;;;5005682;28;20048;-80
2023/07/06 08:11:21;;;;;;;8.32;3.45;;;20.70;99.90;;;;;;5003485;28;20479;-80
2023/07/06 08:13:51;;;;;;;4.88;2.92;;;20.90;99.90;;;;;;5005318;28;20036;-80
2023/07/06 08:16:19;;;;;;;4.72;2.85;;;20.90;99.90;;;;;;5004853;28;20029;-79
2023/07/06 08:18:46;;;;;;;6.30;3.40;;;20.90;99.90;;;;;;5005357;28;20072;-80
2023/07/06 08:21:13;;;;;;;5.07;3.70;;;20.90;99.90;;;;;;5005107;28;20559;-80
2023/07/06 08:23:46;;;;;;;6.40;3.25;;;21.00;99.90;;;;;;5003837;28;20033;-80
2023/07/06 08:26:12;;;;;;;5.40;3.43;;;21.00;99.90;;;;;;5005708;28;20025;-80
2023/07/06 08:28:39;;;;;;;5.40;3.95;;;21.00;99.90;;;;;;5005986;28;20291;-80
2023/07/06 08:31:14;;;;;;;6.32;3.80;;;21.00;99.90;;;;;;5006352;28;20022;-80
2023/07/06 08:33:40;;;;;;;4.55;3.45;;;21.00;99.90;;;;;;5006076;28;20083;-80
2023/07/06 08:36:09;;;;;;;4.82;3.50;;;21.10;99.90;;;;;;5006607;28;20342;-80
2023/07/06 08:38:38;;;;;;;5.85;3.25;;;21.20;99.90;;;;;;5005793;28;20025;-79
2023/07/06 08:41:29;;;;;;;6.10;3.50;;;21.50;99.90;;;;;;5006982;28;20473;-80
2023/07/06 08:43:56;;;;;;;7.72;3.88;;;21.70;99.90;;;;;;4996687;28;21479;-79
2023/07/06 08:46:22;;;;;;;7.22;3.97;;;21.80;99.90;;;;;;5007198;28;20037;-80
2023/07/06 08:48:48;;;;;;;6.20;3.58;;;21.80;99.90;;;;;;5005114;28;20045;-79
2023/07/06 08:51:34;;;;;;;6.85;3.63;;;21.80;99.90;;;;;;5006912;28;20041;-80
2023/07/06 08:54:19;;;;;;;5.90;3.40;;;21.90;99.90;;;;;;5005433;28;20088;-80
2023/07/06 08:56:47;;;;;;;5.10;3.20;;;22.10;99.90;;;;;;5005710;28;20112;-80
2023/07/06 08:59:35;;;;;;;6.45;3.47;;;22.30;99.90;;;;;;5007083;28;20652;-80
2023/07/06 09:02:24;;;;;;;6.43;3.47;;;22.40;99.90;;;;;;5005741;28;20041;-80
2023/07/06 09:04:52;;;;;;;5.15;3.47;;;22.50;99.90;;;;;;5005911;28;20094;-80
2023/07/06 09:07:24;;;;;;;7.80;3.50;;;22.40;99.90;;;;;;5006687;28;20048;-80
2023/07/06 09:09:51;;;;;;;5.20;3.47;;;22.40;99.90;;;;;;5004878;28;20061;-80
2023/07/06 09:12:29;;;;;;;5.57;3.70;;;22.40;99.90;;;;;;5005485;28;20068;-79
2023/07/06 09:14:58;;;;;;;7.22;3.60;;;22.30;99.90;;;;;;5006139;28;20183;-80
2023/07/06 09:17:23;;;;;;;5.28;3.55;;;22.20;99.90;;;;;;5007173;28;20034;-80
2023/07/06 09:19:51;;;;;;;5.88;3.45;;;22.10;99.90;;;;;;5005457;28;20018;-81
2023/07/06 09:22:18;;;;;;;6.80;3.47;;;22.10;99.90;;;;;;5006385;28;20373;-80
2023/07/06 09:24:45;;;;;;;6.63;3.60;;;22.00;99.90;;;;;;5005557;28;20075;-80
2023/07/06 09:27:18;;;;;;;5.63;3.83;;;22.10;99.90;;;;;;5005935;28;20053;-80
2023/07/06 09:29:44;;;;;;;4.97;3.50;;;22.10;99.90;;;;;;5005754;28;20030;-80
2023/07/06 09:32:21;;;;;;;5.97;3.65;;;22.30;99.90;;;;;;5005319;28;20033;-80
2023/07/06 09:34:54;;;;;;;5.45;3.50;;;22.50;99.90;;;;;;5003762;28;20022;-80
2023/07/06 09:37:20;;;;;;;7.88;3.97;;;22.70;99.90;;;;;;5007573;28;20025;-80
2023/07/06 09:40:04;;;;;;;4.85;3.60;;;22.90;99.90;;;;;;5008787;28;20490;-80
2023/07/06 09:42:31;;;;;;;5.28;4.00;;;22.70;99.90;;;;;;5007410;28;20496;-81
2023/07/06 09:44:58;;;;;;;5.65;3.70;;;22.80;99.90;;;;;;5007960;28;20084;-80
2023/07/06 09:47:24;;;;;;;6.78;4.40;;;22.90;99.90;;;;;;5008306;28;20030;-80
2023/07/06 09:49:58;;;;;;;5.07;3.58;;;23.00;99.90;;;;;;5009484;28;20022;-80
2023/07/06 09:52:25;;;;;;;7.90;3.58;;;23.00;99.90;;;;;;5007471;28;20440;-80
2023/07/06 09:55:04;;;;;;;7.35;3.58;;;22.90;99.90;;;;;;5008861;28;20399;-80
2023/07/06 09:57:34;;;;;;;5.75;3.85;;;22.90;99.90;;;;;;5008515;28;20054;-80
2023/07/06 10:00:00;;;;;;;6.43;3.67;;;22.90;99.90;;;;;;5009685;28;20041;-80
2023/07/06 10:02:36;;;;;;;5.60;3.90;;;22.80;99.90;;;;;;5008944;28;20043;-80
2023/07/06 10:05:12;;;;;;;7.22;3.60;;;22.90;99.90;;;;;;5007652;28;20437;-80
2023/07/06 10:07:46;;;;;;;6.22;3.80;;;23.00;99.90;;;;;;5007812;28;20129;-80
2023/07/06 10:10:16;;;;;;;6.05;3.42;;;23.30;99.90;;;;;;5007477;28;20044;-80
2023/07/06 10:13:00;;;;;;;5.15;3.50;;;23.40;99.90;;;;;;5009600;28;20041;-80
2023/07/06 10:15:59;;;;;;;5.10;3.35;;;23.40;99.90;;;;;;5007349;28;20065;-80
2023/07/06 10:18:33;;;;;;;6.40;3.40;;;23.40;99.90;;;;;;5009132;28;20030;-80
2023/07/06 10:21:11;;;;;;;6.03;3.73;;;23.50;99.90;;;;;;5007971;28;20034;-80
2023/07/06 10:24:05;;;;;;;5.47;3.88;;;23.60;99.90;;;;;;5008040;28;20030;-81
2023/07/06 10:26:33;;;;;;;7.63;4.00;;;23.80;99.90;;;;;;4988929;28;20038;-80
2023/07/06 10:31:43;;;;;;;5.03;3.85;;;24.10;99.90;;;;;;5012632;28;20049;-85
2023/07/06 10:34:17;;;;;;;8.63;4.10;;;24.50;99.90;;;;;;5007445;28;20030;-86
2023/07/06 10:36:44;;;;;;;9.20;3.58;;;24.90;99.90;;;;;;4996182;28;20041;-85
2023/07/06 10:39:35;;;;;;;4.90;3.83;;;25.00;99.90;;;;;;4995365;28;20132;-86
2023/07/06 10:42:18;;;;;;;5.90;4.00;;;24.90;99.90;;;;;;4993863;28;20037;-86
2023/07/06 10:44:58;;;;;;;6.10;4.32;;;24.90;99.90;;;;;;4995970;28;20037;-85
2023/07/06 10:47:44;;;;;;;5.43;3.90;;;24.60;99.90;;;;;;4992914;28;20030;-76
2023/07/06 10:50:28;;;;;;;5.55;3.67;;;24.30;99.90;;;;;;4991739;28;20037;-77
2023/07/06 10:53:13;;;;;;;6.72;3.80;;;24.20;99.90;;;;;;4993468;28;20058;-78
2023/07/06 10:55:39;;;;;;;5.78;4.05;;;24.10;99.90;;;;;;4994925;28;20482;-74
2023/07/06 10:58:27;;;;;;;5.65;3.47;;;24.10;99.90;;;;;;4996093;28;20165;-77
2023/07/06 11:00:59;;;;;;;5.05;3.72;;;24.30;99.90;;;;;;4993082;28;20038;-74
2023/07/06 11:03:28;;;;;;;6.93;3.65;;;24.40;99.90;;;;;;4992816;28;20045;-74
2023/07/06 11:06:06;;;;;;;5.60;3.90;;;24.40;99.90;;;;;;4991131;28;20034;-75
2023/07/06 11:09:08;;;;;;;7.80;4.10;;;24.40;99.90;;;;;;4993977;28;20184;-74
2023/07/06 11:12:01;;;;;;;7.07;3.60;;;24.80;99.90;;;;;;4995903;28;20042;-74
2023/07/06 11:14:33;;;;;;;5.15;4.28;;;25.00;99.90;;;;;;4985958;28;20034;-75
2023/07/06 11:17:13;;;;;;;8.93;4.07;;;25.40;99.90;;;;;;4991245;28;20032;-75
2023/07/06 11:19:43;;;;;;;5.03;3.88;;;25.70;99.90;;;;;;4993694;28;20037;-76
2023/07/06 11:22:16;;;;;;;6.43;4.32;;;26.10;99.90;;;;;;4996395;28;20042;-74
2023/07/06 11:24:49;;;;;;;6.38;3.78;;;26.50;99.90;;;;;;4993513;28;20030;-75
2023/07/06 11:27:26;;;;;;;5.68;3.88;;;26.70;99.90;;;;;;4994998;28;20449;-74
2023/07/06 11:29:54;;;;;;;6.78;4.30;;;26.90;99.90;;;;;;4994556;28;20042;-74
2023/07/06 11:32:32;;;;;;;7.18;4.10;;;27.00;99.90;;;;;;4994761;28;20034;-74
2023/07/06 11:35:31;;;;;;;5.50;4.15;;;27.00;99.90;;;;;;4993748;28;20484;-75
2023/07/06 11:38:19;;;;;;;6.60;4.30;;;26.60;99.90;;;;;;4993136;28;20030;-75
2023/07/06 11:41:25;;;;;;;5.65;4.03;;;26.50;99.50;;;;;;4993647;28;20490;-74
2023/07/06 11:44:01;;;;;;;6.65;4.32;;;26.20;99.90;;;;;;4993884;28;20030;-75
2023/07/06 11:46:42;;;;;;;6.00;3.75;;;26.20;99.90;;;;;;4993987;28;20034;-76
2023/07/06 11:49:32;;;;;;;5.97;4.05;;;26.70;99.90;;;;;;4993205;28;20041;-80
2023/07/06 11:51:58;;;;;;;5.82;4.30;;;27.00;99.90;;;;;;4995235;28;20034;-74
2023/07/06 11:54:48;;;;;;;5.70;3.90;;;27.30;98.50;;;;;;4993628;28;20061;-74
2023/07/06 11:57:28;;;;;;;7.88;3.70;;;27.70;99.00;;;;;;4994252;28;20036;-75
2023/07/06 12:03:02;;;;;;;4.55;3.60;;;28.30;96.50;;;;;;4992189;28;20042;-74
2023/07/06 12:05:44;;;;;;;6.60;4.25;;;28.60;98.30;;;;;;4973422;28;20036;-73
2023/07/06 12:08:19;;;;;;;5.70;3.90;;;28.50;95.60;;;;;;4992323;28;20057;-76
2023/07/06 12:10:51;;;;;;;4.82;3.95;;;28.30;96.70;;;;;;4989507;28;20046;-75
2023/07/06 12:13:29;;;;;;;8.43;4.03;;;27.70;97.20;;;;;;4989584;28;20038;-78
2023/07/06 12:16:07;;;;;;;6.50;4.40;;;27.10;97.90;;;;;;4991846;28;20044;-75
2023/07/06 12:18:34;;;;;;;5.10;4.00;;;26.90;98.10;;;;;;4991644;28;20045;-75
2023/07/06 12:21:01;;;;;;;5.45;4.00;;;27.10;97.60;;;;;;4991176;28;20497;-78
2023/07/06 12:23:27;;;;;;;8.35;4.30;;;27.30;95.90;;;;;;4992126;28;20106;-75
2023/07/06 12:25:57;;;;;;;7.35;4.80;;;27.10;96.00;;;;;;4991455;28;20537;-74
2023/07/06 12:28:29;;;;;;;6.72;4.13;;;26.60;97.00;;;;;;4991109;28;20557;-77
2023/07/06 12:30:58;;;;;;;7.32;4.28;;;26.10;97.70;;;;;;4990747;28;20036;-74
2023/07/06 12:33:24;;;;;;;5.90;4.15;;;25.60;98.60;;;;;;4990618;28;20152;-74
2023/07/06 12:35:52;;;;;;;5.75;4.00;;;25.30;99.20;;;;;;4990672;28;20474;-79
2023/07/06 12:38:19;;;;;;;6.43;3.92;;;25.30;98.20;;;;;;4989903;28;20084;-76
2023/07/06 12:40:46;;;;;;;6.72;4.00;;;25.40;98.00;;;;;;4989410;28;20160;-75
2023/07/06 12:43:25;;;;;;;6.70;3.75;;;25.70;99.90;;;;;;4989313;28;20045;-75
2023/07/06 12:45:55;;;;;;;6.57;4.20;;;26.20;98.20;;;;;;4990310;28;20030;-76
2023/07/06 12:48:24;;;;;;;5.88;4.43;;;26.40;96.70;;;;;;4991633;28;20478;-74
2023/07/06 12:50:54;;;;;;;4.93;3.90;;;26.70;98.40;;;;;;4990678;28;20422;-74
2023/07/06 12:53:27;;;;;;;6.90;4.07;;;27.30;95.50;;;;;;4990146;28;20061;-74
2023/07/06 12:55:58;;;;;;;5.90;3.83;;;26.80;96.60;;;;;;4990501;28;20049;-73
2023/07/06 12:58:37;;;;;;;6.90;4.35;;;26.40;97.50;;;;;;4991099;28;20026;-73
2023/07/06 13:01:03;;;;;;;5.25;3.90;;;26.00;97.50;;;;;;4989555;28;20060;-76
2023/07/06 13:03:30;;;;;;;6.22;4.40;;;25.90;96.50;;;;;;4989867;28;20025;-71
2023/07/06 13:05:56;;;;;;;7.22;3.97;;;26.10;97.70;;;;;;4990703;28;20032;-74
2023/07/06 13:08:23;;;;;;;6.72;4.30;;;26.50;96.80;;;;;;4991471;28;20045;-76